Jefferson City, Missouri
Current Conditions -  °F | °C
As of 6:53 PM on Thursday 27 Nov 2014 (Local Time) from KJEF Reporting Station
Clear Clear  
Wind Chill: -1°   Ceiling: Unl
Heat Index: -1°   Visibility: 10mi
Dew Point: -5°   Wind: 3mph
Humidity: 72%   Direction: 90°E
Pressure: 30.43"   Gusts: NA
Location:  38.58°N, 92.18°W
Report Text: KJEF 280053Z 09003KT 10SM CLR M01/M05 A3043 RMK AO2 SLP302 T10061050 $
Loading
Personal Weather Stations






























Interactive Weather Map New forecast layout! Learn more

10-Day Weather Forecast

Advertisements
Track Severe Weather on mobile